Jaguar — A8XZ3 — position and weather

sailwx.info

Track history (hours):
 
Tides and Currents Weather Stations Pressure Air Temp Water Temp Dewpoint Dewpoint Depression Visibility Wind Speed Wind Dir Waves Ship Positions

Jaguar

Last reported at 2017-Oct-16 13:56 UTC. Time now 2017-Oct-19 20:02 UTC.
Position N 36°49' E 010°25'.

Length 157 m; draft 9.2 m.

Type: Cargo ship. MMSI: 636015001.

Date/timePositionNaut miles runAvg speedWind from/ knotsBaromVisibWave heightAir tempDewpointWater temp
2017-Oct-16 13:56N 36°49' E 010°25'  
2017-Oct-09 01:45N 36°03' E 013°48'314.0
2017-Oct-09 01:30N 36°01' E 013°52'713.8
2017-Oct-09 01:00N 35°58' E 013°59'713.7
2017-Oct-09 00:30N 35°54' E 014°06'713.7
2017-Oct-09 00:00N 35°51' E 014°13'713.5
2017-Oct-08 23:30N 35°47' E 014°21'613.2
2017-Oct-08 23:00N 35°45' E 014°28'5 0.3
2017-Oct-08 05:53N 35°49' E 014°32'0 0.0
2017-Oct-08 04:02N 35°49' E 014°32'0 0.0
2017-Oct-07 19:37N 35°49' E 014°33'1 5.8
2017-Oct-07 19:30N 35°49' E 014°33'2 3.0
2017-Oct-07 19:00N 35°48' E 014°34'1 1.8
2017-Oct-07 18:30N 35°48' E 014°35'8 4.9
2017-Oct-07 16:45N 35°44' E 014°26'311.7
2017-Oct-07 16:30N 35°45' E 014°23'612.6
2017-Oct-07 16:00N 35°47' E 014°15'612.3
2017-Oct-07 15:30N 35°49' E 014°08'612.3
2017-Oct-07 14:59N 35°50' E 014°01'612.3
2017-Oct-07 14:30N 35°53' E 013°54'612.5
2017-Oct-07 14:00N 35°55' E 013°47'  
Track history (hours):
 
Tides and Currents Weather Stations Pressure Air Temp Water Temp Dewpoint Dewpoint Depression Visibility Wind Speed Wind Dir Waves Ship Positions

Jaguar

Last reported at 2017-Oct-16 13:56 UTC. Time now 2017-Oct-19 20:02 UTC.
Position N 36°49' E 010°25'.

Length 157 m; draft 9.2 m.

Type: Cargo ship. MMSI: 636015001.

Date/timePositionNaut miles runAvg speedWind from/ knotsBaromVisibWave heightAir tempDewpointWater temp
2017-Oct-16 13:56N 36°49' E 010°25'  
2017-Oct-09 01:45N 36°03' E 013°48'314.0
2017-Oct-09 01:30N 36°01' E 013°52'713.8
2017-Oct-09 01:00N 35°58' E 013°59'713.7
2017-Oct-09 00:30N 35°54' E 014°06'713.7
2017-Oct-09 00:00N 35°51' E 014°13'713.5
2017-Oct-08 23:30N 35°47' E 014°21'613.2
2017-Oct-08 23:00N 35°45' E 014°28'5 0.3
2017-Oct-08 05:53N 35°49' E 014°32'0 0.0
2017-Oct-08 04:02N 35°49' E 014°32'0 0.0
2017-Oct-07 19:37N 35°49' E 014°33'1 5.8
2017-Oct-07 19:30N 35°49' E 014°33'2 3.0
2017-Oct-07 19:00N 35°48' E 014°34'1 1.8
2017-Oct-07 18:30N 35°48' E 014°35'8 4.9
2017-Oct-07 16:45N 35°44' E 014°26'311.7
2017-Oct-07 16:30N 35°45' E 014°23'612.6
2017-Oct-07 16:00N 35°47' E 014°15'612.3
2017-Oct-07 15:30N 35°49' E 014°08'612.3
2017-Oct-07 14:59N 35°50' E 014°01'612.3
2017-Oct-07 14:30N 35°53' E 013°54'612.5
2017-Oct-07 14:00N 35°55' E 013°47'  

Dump ship's entire track history